sensor_id;sensor_type;location;lat;lon;timestamp;pressure;altitude;pressure_sealevel;temperature;humidity
6034;BME280;3045;43.226;27.858;2023-02-28T00:01:08;44634.41;;;8.35;100.00
6034;BME280;3045;43.226;27.858;2023-02-28T00:03:34;44635.19;;;8.36;100.00
6034;BME280;3045;43.226;27.858;2023-02-28T00:06:02;46902.56;;;8.45;100.00
6034;BME280;3045;43.226;27.858;2023-02-28T00:08:29;50460.03;;;8.49;100.00
6034;BME280;3045;43.226;27.858;2023-02-28T00:11:01;58238.56;;;8.59;100.00
6034;BME280;3045;43.226;27.858;2023-02-28T00:13:29;67319.34;;;8.53;100.00
6034;BME280;3045;43.226;27.858;2023-02-28T00:16:00;72517.44;;;8.49;100.00
6034;BME280;3045;43.226;27.858;2023-02-28T00:18:27;74457.72;;;8.39;100.00
6034;BME280;3045;43.226;27.858;2023-02-28T00:20:54;59463.50;;;7.89;100.00
6034;BME280;3045;43.226;27.858;2023-02-28T00:23:21;48474.41;;;7.94;100.00
6034;BME280;3045;43.226;27.858;2023-02-28T00:25:48;45894.31;;;7.96;100.00
6034;BME280;3045;43.226;27.858;2023-02-28T00:28:17;45559.72;;;7.80;100.00
6034;BME280;3045;43.226;27.858;2023-02-28T00:30:44;45587.75;;;8.16;100.00
6034;BME280;3045;43.226;27.858;2023-02-28T00:33:11;46883.66;;;8.22;100.00
6034;BME280;3045;43.226;27.858;2023-02-28T00:35:38;53337.13;;;8.12;100.00
6034;BME280;3045;43.226;27.858;2023-02-28T00:38:05;56235.75;;;7.98;100.00
6034;BME280;3045;43.226;27.858;2023-02-28T00:40:32;55598.28;;;8.08;100.00
6034;BME280;3045;43.226;27.858;2023-02-28T00:42:59;50719.06;;;7.75;100.00
6034;BME280;3045;43.226;27.858;2023-02-28T00:45:27;44242.75;;;7.45;100.00
6034;BME280;3045;43.226;27.858;2023-02-28T00:47:54;40396.34;;;7.70;100.00
6034;BME280;3045;43.226;27.858;2023-02-28T00:50:21;40412.44;;;7.93;100.00
6034;BME280;3045;43.226;27.858;2023-02-28T00:52:48;41359.00;;;7.65;100.00
6034;BME280;3045;43.226;27.858;2023-02-28T00:55:15;38798.06;;;7.86;100.00
6034;BME280;3045;43.226;27.858;2023-02-28T00:57:42;42016.81;;;7.84;100.00
6034;BME280;3045;43.226;27.858;2023-02-28T01:00:10;42975.50;;;7.73;100.00
6034;BME280;3045;43.226;27.858;2023-02-28T01:02:38;43626.13;;;7.81;100.00
6034;BME280;3045;43.226;27.858;2023-02-28T01:05:06;48798.53;;;7.95;100.00
6034;BME280;3045;43.226;27.858;2023-02-28T01:07:33;51374.44;;;7.86;100.00
6034;BME280;3045;43.226;27.858;2023-02-28T01:10:00;45220.16;;;7.59;100.00
6034;BME280;3045;43.226;27.858;2023-02-28T01:12:27;41371.44;;;7.82;100.00
6034;BME280;3045;43.226;27.858;2023-02-28T01:14:54;42026.84;;;7.98;100.00
6034;BME280;3045;43.226;27.858;2023-02-28T01:17:21;51059.41;;;7.95;100.00
6034;BME280;3045;43.226;27.858;2023-02-28T01:19:49;52991.59;;;7.88;100.00
6034;BME280;3045;43.226;27.858;2023-02-28T01:22:16;52986.03;;;7.81;100.00
6034;BME280;3045;43.226;27.858;2023-02-28T01:24:42;52328.28;;;7.69;100.00
6034;BME280;3045;43.226;27.858;2023-02-28T01:27:09;48117.84;;;7.53;100.00
6034;BME280;3045;43.226;27.858;2023-02-28T01:29:36;41980.84;;;7.35;100.00
6034;BME280;3045;43.226;27.858;2023-02-28T01:32:03;39411.78;;;7.43;100.00
6034;BME280;3045;43.226;27.858;2023-02-28T01:34:30;39409.69;;;7.40;100.00
6034;BME280;3045;43.226;27.858;2023-02-28T01:36:58;32645.50;;;7.13;100.00
6034;BME280;3045;43.226;27.858;2023-02-28T01:39:25;30407.94;;;7.27;100.00
6034;BME280;3045;43.226;27.858;2023-02-28T01:41:52;29114.31;;;7.07;100.00
6034;BME280;3045;43.226;27.858;2023-02-28T01:47:38;35892.22;;;7.70;100.00
6034;BME280;3045;43.226;27.858;2023-02-28T01:50:09;41688.03;;;7.75;100.00
6034;BME280;3045;43.226;27.858;2023-02-28T01:52:38;43956.19;;;7.92;100.00
6034;BME280;3045;43.226;27.858;2023-02-28T01:55:07;46865.53;;;8.00;100.00
6034;BME280;3045;43.226;27.858;2023-02-28T01:57:38;53652.59;;;8.03;100.00
6034;BME280;3045;43.226;27.858;2023-02-28T02:00:09;61731.81;;;7.89;100.00
6034;BME280;3045;43.226;27.858;2023-02-28T02:02:39;60425.25;;;7.79;100.00
6034;BME280;3045;43.226;27.858;2023-02-28T02:05:10;57839.56;;;7.84;100.00
6034;BME280;3045;43.226;27.858;2023-02-28T02:07:42;56855.34;;;7.70;100.00
6034;BME280;3045;43.226;27.858;2023-02-28T02:10:12;54899.03;;;7.53;100.00
6034;BME280;3045;43.226;27.858;2023-02-28T02:15:35;47491.06;;;7.75;100.00
6034;BME280;3045;43.226;27.858;2023-02-28T02:18:15;51049.16;;;7.84;100.00
6034;BME280;3045;43.226;27.858;2023-02-28T02:24:13;60748.66;;;7.78;100.00
6034;BME280;3045;43.226;27.858;2023-02-28T02:26:55;58133.97;;;7.54;100.00
6034;BME280;3045;43.226;27.858;2023-02-28T02:29:43;50698.66;;;7.52;100.00
6034;BME280;3045;43.226;27.858;2023-02-28T02:32:32;43577.31;;;7.17;100.00
6034;BME280;3045;43.226;27.858;2023-02-28T02:35:12;36477.03;;;6.79;100.00
6034;BME280;3045;43.226;27.858;2023-02-28T02:37:45;30067.31;;;6.91;100.00
6034;BME280;3045;43.226;27.858;2023-02-28T02:40:18;26536.97;;;6.77;100.00
6034;BME280;3045;43.226;27.858;2023-02-28T02:42:50;25583.31;;;6.92;100.00
6034;BME280;3045;43.226;27.858;2023-02-28T02:45:25;26229.59;;;7.04;100.00
6034;BME280;3045;43.226;27.858;2023-02-28T02:47:53;31035.22;;;7.02;100.00
6034;BME280;3045;43.226;27.858;2023-02-28T02:50:26;33287.66;;;7.13;100.00
6034;BME280;3045;43.226;27.858;2023-02-28T02:52:57;35535.78;;;7.14;100.00
6034;BME280;3045;43.226;27.858;2023-02-28T02:55:27;42620.59;;;7.29;100.00
6034;BME280;3045;43.226;27.858;2023-02-28T02:57:58;46475.06;;;7.16;100.00
6034;BME280;3045;43.226;27.858;2023-02-28T03:00:30;43565.81;;;7.02;100.00
6034;BME280;3045;43.226;27.858;2023-02-28T03:03:00;42939.13;;;7.25;100.00
6034;BME280;3045;43.226;27.858;2023-02-28T03:05:35;43888.09;;;7.03;100.00
6034;BME280;3045;43.226;27.858;2023-02-28T03:08:06;40340.22;;;6.91;100.00
6034;BME280;3045;43.226;27.858;2023-02-28T03:10:36;37445.13;;;6.86;100.00
6034;BME280;3045;43.226;27.858;2023-02-28T03:13:42;37780.13;;;7.07;100.00
6034;BME280;3045;43.226;27.858;2023-02-28T03:16:38;41632.81;;;6.99;100.00
6034;BME280;3045;43.226;27.858;2023-02-28T03:19:42;47755.06;;;7.05;100.00
6034;BME280;3045;43.226;27.858;2023-02-28T03:25:08;49059.13;;;7.22;100.00
6034;BME280;3045;43.226;27.858;2023-02-28T03:27:41;52290.41;;;7.27;100.00
6034;BME280;3045;43.226;27.858;2023-02-28T03:30:14;52592.16;;;7.04;100.00
6034;BME280;3045;43.226;27.858;2023-02-28T03:32:51;48415.84;;;7.24;100.00
6034;BME280;3045;43.226;27.858;2023-02-28T03:35:21;46464.47;;;7.03;100.00
6034;BME280;3045;43.226;27.858;2023-02-28T03:37:53;39703.94;;;7.00;100.00
6034;BME280;3045;43.226;27.858;2023-02-28T03:40:23;35515.81;;;6.82;100.00
6034;BME280;3045;43.226;27.858;2023-02-28T03:42:55;31989.34;;;6.87;100.00
6034;BME280;3045;43.226;27.858;2023-02-28T03:45:27;31985.31;;;6.80;100.00
6034;BME280;3045;43.226;27.858;2023-02-28T03:47:57;32311.53;;;6.90;100.00
6034;BME280;3045;43.226;27.858;2023-02-28T03:50:29;34220.31;;;6.63;100.00
6034;BME280;3045;43.226;27.858;2023-02-28T03:53:04;34877.56;;;6.88;100.00
6034;BME280;3045;43.226;27.858;2023-02-28T03:55:36;32946.88;;;6.79;100.00
6034;BME280;3045;43.226;27.858;2023-02-28T03:58:11;33265.84;;;6.76;100.00
6034;BME280;3045;43.226;27.858;2023-02-28T04:00:41;31665.81;;;6.82;100.00
6034;BME280;3045;43.226;27.858;2023-02-28T04:03:10;30711.22;;;6.96;100.00
6034;BME280;3045;43.226;27.858;2023-02-28T04:05:50;32003.78;;;7.13;100.00
6034;BME280;3045;43.226;27.858;2023-02-28T04:08:19;37796.59;;;7.32;100.00
6034;BME280;3045;43.226;27.858;2023-02-28T04:10:50;48425.16;;;7.35;100.00
6034;BME280;3045;43.226;27.858;2023-02-28T04:13:18;52292.22;;;7.29;100.00
6034;BME280;3045;43.226;27.858;2023-02-28T04:15:45;55863.06;;;7.47;100.00
6034;BME280;3045;43.226;27.858;2023-02-28T04:18:12;56184.44;;;7.45;100.00
6034;BME280;3045;43.226;27.858;2023-02-28T04:20:39;59742.28;;;7.45;100.00
6034;BME280;3045;43.226;27.858;2023-02-28T04:23:05;62979.81;;;7.44;100.00
6034;BME280;3045;43.226;27.858;2023-02-28T04:25:34;63588.72;;;7.08;100.00
6034;BME280;3045;43.226;27.858;2023-02-28T04:28:01;61328.50;;;7.14;100.00
6034;BME280;3045;43.226;27.858;2023-02-28T04:30:27;58098.66;;;7.19;100.00
6034;BME280;3045;43.226;27.858;2023-02-28T04:32:55;58745.94;;;7.19;100.00
6034;BME280;3045;43.226;27.858;2023-02-28T04:35:21;62973.81;;;7.39;100.00
6034;BME280;3045;43.226;27.858;2023-02-28T04:37:48;67175.34;;;7.28;100.00
6034;BME280;3045;43.226;27.858;2023-02-28T04:40:16;68151.84;;;7.31;100.00
6034;BME280;3045;43.226;27.858;2023-02-28T04:42:44;67499.06;;;7.27;100.00
6034;BME280;3045;43.226;27.858;2023-02-28T04:45:11;67838.59;;;7.41;100.00
6034;BME280;3045;43.226;27.858;2023-02-28T04:47:38;65202.63;;;7.03;100.00
6034;BME280;3045;43.226;27.858;2023-02-28T04:50:05;58092.59;;;7.13;100.00
6034;BME280;3045;43.226;27.858;2023-02-28T04:52:32;58084.03;;;7.04;100.00
6034;BME280;3045;43.226;27.858;2023-02-28T04:54:59;55168.00;;;6.96;100.00
6034;BME280;3045;43.226;27.858;2023-02-28T04:57:27;54209.66;;;7.07;100.00
6034;BME280;3045;43.226;27.858;2023-02-28T04:59:56;54857.47;;;7.09;100.00
6034;BME280;3045;43.226;27.858;2023-02-28T05:02:23;57459.97;;;7.27;100.00
6034;BME280;3045;43.226;27.858;2023-02-28T05:04:50;62333.59;;;7.46;100.00
6034;BME280;3045;43.226;27.858;2023-02-28T05:07:17;70433.59;;;7.40;100.00
6034;BME280;3045;43.226;27.858;2023-02-28T05:09:44;67189.28;;;7.40;100.00
6034;BME280;3045;43.226;27.858;2023-02-28T05:12:11;55822.25;;;7.05;100.00
6034;BME280;3045;43.226;27.858;2023-02-28T05:14:38;49689.00;;;7.04;100.00
6034;BME280;3045;43.226;27.858;2023-02-28T05:17:06;49054.41;;;7.16;100.00
6034;BME280;3045;43.226;27.858;2023-02-28T05:19:33;51622.66;;;7.02;100.00
6034;BME280;3045;43.226;27.858;2023-02-28T05:22:00;43242.78;;;7.01;100.00
6034;BME280;3045;43.226;27.858;2023-02-28T05:24:28;40649.53;;;6.73;100.00
6034;BME280;3045;43.226;27.858;2023-02-28T05:26:55;38736.09;;;6.95;100.00
6034;BME280;3045;43.226;27.858;2023-02-28T05:29:22;36789.28;;;6.66;100.00
6034;BME280;3045;43.226;27.858;2023-02-28T05:31:49;28456.72;;;6.74;100.00
6034;BME280;3045;43.226;27.858;2023-02-28T05:34:17;24613.56;;;6.70;100.00
6034;BME280;3045;43.226;27.858;2023-02-28T05:36:45;23985.13;;;6.96;100.00
6034;BME280;3045;43.226;27.858;2023-02-28T05:39:13;26230.31;;;7.06;100.00
6034;BME280;3045;43.226;27.858;2023-02-28T05:41:42;29112.47;;;7.03;100.00
6034;BME280;3045;43.226;27.858;2023-02-28T05:44:10;29743.03;;;6.83;100.00
6034;BME280;3045;43.226;27.858;2023-02-28T05:46:37;32007.22;;;7.19;100.00
6034;BME280;3045;43.226;27.858;2023-02-28T05:49:04;33289.16;;;7.16;100.00
6034;BME280;3045;43.226;27.858;2023-02-28T05:51:33;28147.47;;;6.96;100.00
6034;BME280;3045;43.226;27.858;2023-02-28T05:54:02;23975.81;;;6.75;100.00
6034;BME280;3045;43.226;27.858;2023-02-28T05:56:29;16943.31;;;6.66;100.00
6034;BME280;3045;43.226;27.858;2023-02-28T05:58:56;12473.66;;;6.48;100.00
6034;BME280;3045;43.226;27.858;2023-02-28T06:01:30;10565.03;;;6.60;100.00
6034;BME280;3045;43.226;27.858;2023-02-28T06:03:58;8018.59;;;6.63;100.00
6034;BME280;3045;43.226;27.858;2023-02-28T06:06:25;7699.19;;;6.56;100.00
6034;BME280;3045;43.226;27.858;2023-02-28T06:08:53;6106.13;;;6.40;100.00
6034;BME280;3045;43.226;27.858;2023-02-28T06:11:20;1656.97;;;6.32;100.00
6034;BME280;3045;43.226;27.858;2023-02-28T06:13:47;-565.31;;;6.18;100.00
6034;BME280;3045;43.226;27.858;2023-02-28T06:16:14;-3102.00;;;6.40;100.00
6034;BME280;3045;43.226;27.858;2023-02-28T06:18:41;-4052.88;;;6.25;100.00
6034;BME280;3045;43.226;27.858;2023-02-28T06:21:07;-5637.63;;;6.39;100.00
6034;BME280;3045;43.226;27.858;2023-02-28T06:23:34;-5637.84;;;6.45;100.00
6034;BME280;3045;43.226;27.858;2023-02-28T06:26:03;-5320.91;;;6.43;100.00
6034;BME280;3045;43.226;27.858;2023-02-28T06:28:30;-5637.06;;;6.26;100.00
6034;BME280;3045;43.226;27.858;2023-02-28T06:30:57;-5636.88;;;6.22;100.00
6034;BME280;3045;43.226;27.858;2023-02-28T06:33:24;-6270.22;;;6.20;100.00
6034;BME280;3045;43.226;27.858;2023-02-28T06:35:51;-7536.72;;;6.21;100.00
6034;BME280;3045;43.226;27.858;2023-02-28T06:38:21;-8170.88;;;6.35;100.00
6034;BME280;3045;43.226;27.858;2023-02-28T06:40:53;-6585.88;;;6.03;100.00
6034;BME280;3045;43.226;27.858;2023-02-28T06:43:22;-7852.78;;;6.15;100.00
6034;BME280;3045;43.226;27.858;2023-02-28T06:45:49;-7536.03;;;6.12;100.00
6034;BME280;3045;43.226;27.858;2023-02-28T06:48:16;-8484.47;;;6.01;100.00
6034;BME280;3045;43.226;27.858;2023-02-28T06:50:44;-8484.53;;;6.02;100.00
6034;BME280;3045;43.226;27.858;2023-02-28T06:53:12;-8485.09;;;6.08;100.00
6034;BME280;3045;43.226;27.858;2023-02-28T06:55:40;-7852.59;;;6.13;100.00
6034;BME280;3045;43.226;27.858;2023-02-28T06:58:07;-6903.03;;;6.13;100.00
6034;BME280;3045;43.226;27.858;2023-02-28T07:00:45;-7536.22;;;6.14;100.00
6034;BME280;3045;43.226;27.858;2023-02-28T07:03:12;-6586.78;;;6.19;100.00
6034;BME280;3045;43.226;27.858;2023-02-28T07:05:40;-6587.41;;;6.30;100.00
6034;BME280;3045;43.226;27.858;2023-02-28T07:08:07;-5637.38;;;6.34;100.00
6034;BME280;3045;43.226;27.858;2023-02-28T07:10:39;-5636.97;;;6.24;100.00
6034;BME280;3045;43.226;27.858;2023-02-28T07:13:07;-2468.16;;;6.05;100.00
6034;BME280;3045;43.226;27.858;2023-02-28T07:15:35;-3736.00;;;6.30;100.00
6034;BME280;3045;43.226;27.858;2023-02-28T07:18:03;-6270.84;;;6.32;100.00
6034;BME280;3045;43.226;27.858;2023-02-28T07:20:31;-6588.28;;;6.45;100.00
6034;BME280;3045;43.226;27.858;2023-02-28T07:22:58;-5954.75;;;6.46;100.00
6034;BME280;3045;43.226;27.858;2023-02-28T07:25:28;-5637.94;;;6.47;100.00
6034;BME280;3045;43.226;27.858;2023-02-28T07:27:56;-1833.34;;;6.45;100.00
6034;BME280;3045;43.226;27.858;2023-02-28T07:30:24;1339.78;;;6.36;100.00
6034;BME280;3045;43.226;27.858;2023-02-28T07:32:51;-1198.97;;;6.41;100.00
6034;BME280;3045;43.226;27.858;2023-02-28T07:35:21;-4053.47;;;6.64;100.00
6034;BME280;3045;43.226;27.858;2023-02-28T07:37:50;-3419.22;;;6.69;100.00
6034;BME280;3045;43.226;27.858;2023-02-28T07:40:17;-4370.94;;;6.81;100.00
6034;BME280;3045;43.226;27.858;2023-02-28T07:42:44;-2467.38;;;6.81;100.00
6034;BME280;3045;43.226;27.858;2023-02-28T07:45:11;706.50;;;6.62;100.00
6034;BME280;3045;43.226;27.858;2023-02-28T07:47:38;2296.00;;;6.77;100.00
6034;BME280;3045;43.226;27.858;2023-02-28T07:50:06;2297.91;;;6.99;100.00
6034;BME280;3045;43.226;27.858;2023-02-28T07:52:36;1026.97;;;7.06;100.00
6034;BME280;3045;43.226;27.858;2023-02-28T07:55:03;4523.03;;;6.92;100.00
6034;BME280;3045;43.226;27.858;2023-02-28T07:57:31;3886.59;;;6.88;100.00
6034;BME280;3045;43.226;27.858;2023-02-28T07:59:59;5791.81;;;6.65;100.00
6034;BME280;3045;43.226;27.858;2023-02-28T08:02:26;1661.09;;;6.85;100.00
6034;BME280;3045;43.226;27.858;2023-02-28T08:04:53;5792.91;;;6.73;100.00
6034;BME280;3045;43.226;27.858;2023-02-28T08:07:19;5154.47;;;6.56;100.00
6034;BME280;3045;43.226;27.858;2023-02-28T08:09:48;3566.84;;;6.72;100.00
6034;BME280;3045;43.226;27.858;2023-02-28T08:12:15;5473.41;;;6.63;100.00
6034;BME280;3045;43.226;27.858;2023-02-28T08:14:42;2613.34;;;6.72;100.00
6034;BME280;3045;43.226;27.858;2023-02-28T08:17:10;2614.00;;;6.79;100.00
6034;BME280;3045;43.226;27.858;2023-02-28T08:19:37;3249.34;;;6.76;100.00
6034;BME280;3045;43.226;27.858;2023-02-28T08:22:04;4836.06;;;6.52;100.00
6034;BME280;3045;43.226;27.858;2023-02-28T08:24:31;4518.09;;;6.52;100.00
6034;BME280;3045;43.226;27.858;2023-02-28T08:27:00;1975.34;;;6.42;100.00
6034;BME280;3045;43.226;27.858;2023-02-28T08:29:26;1024.19;;;6.64;100.00
6034;BME280;3045;43.226;27.858;2023-02-28T08:31:55;2930.91;;;6.70;100.00
6034;BME280;3045;43.226;27.858;2023-02-28T08:34:24;2932.22;;;6.83;100.00
6034;BME280;3045;43.226;27.858;2023-02-28T08:36:51;5476.84;;;6.87;100.00
6034;BME280;3045;43.226;27.858;2023-02-28T08:39:18;8343.03;;;6.96;100.00
6034;BME280;3045;43.226;27.858;2023-02-28T08:41:45;12481.97;;;6.81;100.00
6034;BME280;3045;43.226;27.858;2023-02-28T08:44:13;10891.47;;;6.95;100.00
6034;BME280;3045;43.226;27.858;2023-02-28T08:46:40;11849.94;;;7.04;100.00
6034;BME280;3045;43.226;27.858;2023-02-28T08:49:09;11846.50;;;6.89;100.00
6034;BME280;3045;43.226;27.858;2023-02-28T08:51:38;13440.09;;;6.87;100.00
6034;BME280;3045;43.226;27.858;2023-02-28T08:54:05;13443.34;;;6.99;100.00
6034;BME280;3045;43.226;27.858;2023-02-28T08:56:32;16308.75;;;6.78;100.00
6034;BME280;3045;43.226;27.858;2023-02-28T08:58:59;17590.50;;;6.93;100.00
6034;BME280;3045;43.226;27.858;2023-02-28T09:01:28;15998.53;;;7.07;100.00
6034;BME280;3045;43.226;27.858;2023-02-28T09:03:57;19196.38;;;7.17;100.00
6034;BME280;3045;43.226;27.858;2023-02-28T09:06:26;20790.78;;;7.06;100.00
6034;BME280;3045;43.226;27.858;2023-02-28T09:08:56;16317.50;;;7.06;100.00
6034;BME280;3045;43.226;27.858;2023-02-28T09:11:25;18556.31;;;7.14;100.00
6034;BME280;3045;43.226;27.858;2023-02-28T09:13:52;21423.47;;;6.89;100.00
6034;BME280;3045;43.226;27.858;2023-02-28T09:16:20;21108.34;;;7.01;100.00
6034;BME280;3045;43.226;27.858;2023-02-28T09:18:49;20476.31;;;7.20;100.00
6034;BME280;3045;43.226;27.858;2023-02-28T09:21:17;24001.16;;;7.32;100.00
6034;BME280;3045;43.226;27.858;2023-02-28T09:23:46;23686.03;;;7.44;100.00
6034;BME280;3045;43.226;27.858;2023-02-28T09:26:15;24657.25;;;7.67;100.00
6034;BME280;3045;43.226;27.858;2023-02-28T09:28:42;30110.38;;;7.70;100.00
6034;BME280;3045;43.226;27.858;2023-02-28T09:31:14;39739.84;;;7.52;100.00
6034;BME280;3045;43.226;27.858;2023-02-28T09:33:41;42638.25;;;7.53;100.00
6034;BME280;3045;43.226;27.858;2023-02-28T09:36:09;45226.91;;;7.67;100.00
6034;BME280;3045;43.226;27.858;2023-02-28T09:38:36;50711.06;;;7.66;100.00
6034;BME280;3045;43.226;27.858;2023-02-28T09:41:09;43277.13;;;7.46;100.00
6034;BME280;3045;43.226;27.858;2023-02-28T09:43:40;37479.78;;;7.39;100.00
6034;BME280;3045;43.226;27.858;2023-02-28T09:46:25;31055.44;;;7.38;100.00
6034;BME280;3045;43.226;27.858;2023-02-28T09:48:54;27851.50;;;7.45;100.00
6034;BME280;3045;43.226;27.858;2023-02-28T09:51:40;29774.06;;;7.42;100.00
6034;BME280;3045;43.226;27.858;2023-02-28T09:54:13;32669.00;;;7.53;100.00
6034;BME280;3045;43.226;27.858;2023-02-28T09:56:45;34255.59;;;7.21;100.00
6034;BME280;3045;43.226;27.858;2023-02-28T09:59:23;32005.50;;;7.16;100.00
6034;BME280;3045;43.226;27.858;2023-02-28T10:01:57;32643.16;;;7.09;100.00
6034;BME280;3045;43.226;27.858;2023-02-28T10:04:39;29439.13;;;7.15;100.00
6034;BME280;3045;43.226;27.858;2023-02-28T10:07:18;29441.00;;;7.18;100.00
6034;BME280;3045;43.226;27.858;2023-02-28T10:09:53;31377.72;;;7.41;100.00
6034;BME280;3045;43.226;27.858;2023-02-28T10:12:22;35236.38;;;7.49;100.00
6034;BME280;3045;43.226;27.858;2023-02-28T10:14:51;39399.56;;;7.25;100.00
6034;BME280;3045;43.226;27.858;2023-02-28T10:17:21;35863.09;;;7.24;100.00
6034;BME280;3045;43.226;27.858;2023-02-28T10:19:57;35228.50;;;7.37;100.00
6034;BME280;3045;43.226;27.858;2023-02-28T10:22:30;37139.13;;;7.10;100.00
6034;BME280;3045;43.226;27.858;2023-02-28T10:25:01;36182.44;;;7.21;100.00
6034;BME280;3045;43.226;27.858;2023-02-28T10:27:32;33616.19;;;7.26;100.00
6034;BME280;3045;43.226;27.858;2023-02-28T10:30:01;33287.38;;;7.13;100.00
6034;BME280;3045;43.226;27.858;2023-02-28T10:32:31;29437.00;;;7.11;100.00
6034;BME280;3045;43.226;27.858;2023-02-28T10:35:06;32972.66;;;7.23;100.00
6034;BME280;3045;43.226;27.858;2023-02-28T10:37:37;33927.22;;;7.09;100.00
6034;BME280;3045;43.226;27.858;2023-02-28T10:40:06;32017.63;;;7.37;100.00
6034;BME280;3045;43.226;27.858;2023-02-28T10:42:34;36194.38;;;7.40;100.00
6034;BME280;3045;43.226;27.858;2023-02-28T10:45:12;41668.88;;;7.49;100.00
6034;BME280;3045;43.226;27.858;2023-02-28T10:47:50;39104.34;;;7.63;100.00
6034;BME280;3045;43.226;27.858;2023-02-28T10:53:24;49419.25;;;7.66;100.00
6034;BME280;3045;43.226;27.858;2023-02-28T10:55:59;51360.53;;;7.70;100.00
6034;BME280;3045;43.226;27.858;2023-02-28T10:58:29;52643.56;;;7.60;100.00
6034;BME280;3045;43.226;27.858;2023-02-28T11:00:57;51684.00;;;7.71;100.00
6034;BME280;3045;43.226;27.858;2023-02-28T11:03:29;52972.19;;;7.66;100.00
6034;BME280;3045;43.226;27.858;2023-02-28T11:05:57;58501.19;;;7.98;100.00
6034;BME280;3045;43.226;27.858;2023-02-28T11:08:25;61751.03;;;8.07;100.00
6034;BME280;3045;43.226;27.858;2023-02-28T11:10:56;66922.72;;;7.91;100.00
6034;BME280;3045;43.226;27.858;2023-02-28T11:13:29;72800.22;;;8.15;100.00
6034;BME280;3045;43.226;27.858;2023-02-28T11:16:03;80908.16;;;7.91;100.00
6034;BME280;3045;43.226;27.858;2023-02-28T11:18:36;76363.59;;;8.02;100.00
6034;BME280;3045;43.226;27.858;2023-02-28T11:21:05;71789.94;;;7.87;100.00
6034;BME280;3045;43.226;27.858;2023-02-28T11:23:36;61712.56;;;7.71;100.00
6034;BME280;3045;43.226;27.858;2023-02-28T11:26:06;52986.97;;;7.82;100.00
6034;BME280;3045;43.226;27.858;2023-02-28T11:28:38;56883.00;;;7.98;100.00
6034;BME280;3045;43.226;27.858;2023-02-28T11:31:15;63364.09;;;8.00;100.00
6034;BME280;3045;43.226;27.858;2023-02-28T11:33:45;71455.06;;;7.78;100.00
6034;BME280;3045;43.226;27.858;2023-02-28T11:36:17;66259.31;;;7.78;100.00
6034;BME280;3045;43.226;27.858;2023-02-28T11:38:46;57826.50;;;7.70;100.00
6034;BME280;3045;43.226;27.858;2023-02-28T11:41:22;54603.41;;;7.82;100.00
6034;BME280;3045;43.226;27.858;2023-02-28T11:44:03;56548.06;;;7.87;100.00
6034;BME280;3045;43.226;27.858;2023-02-28T11:46:37;62995.09;;;7.58;100.00
6034;BME280;3045;43.226;27.858;2023-02-28T11:49:21;61062.00;;;7.68;100.00
6034;BME280;3045;43.226;27.858;2023-02-28T11:51:55;63654.22;;;7.68;100.00
6034;BME280;3045;43.226;27.858;2023-02-28T11:54:35;64610.06;;;7.53;100.00
6034;BME280;3045;43.226;27.858;2023-02-28T11:57:19;61039.78;;;7.47;100.00
6034;BME280;3045;43.226;27.858;2023-02-28T11:59:58;59107.84;;;7.57;100.00
6034;BME280;3045;43.226;27.858;2023-02-28T12:02:31;59423.28;;;7.49;100.00
6034;BME280;3045;43.226;27.858;2023-02-28T12:05:20;59116.06;;;7.65;100.00
6034;BME280;3045;43.226;27.858;2023-02-28T12:07:58;60097.72;;;7.75;100.00
6034;BME280;3045;43.226;27.858;2023-02-28T12:10:36;61049.31;;;7.56;100.00
6034;BME280;3045;43.226;27.858;2023-02-28T12:13:14;57784.84;;;7.28;100.00
6034;BME280;3045;43.226;27.858;2023-02-28T12:16:11;53270.69;;;7.40;100.00
6034;BME280;3045;43.226;27.858;2023-02-28T12:18:56;52628.41;;;7.44;100.00
6034;BME280;3045;43.226;27.858;2023-02-28T12:21:36;53271.16;;;7.40;100.00
6034;BME280;3045;43.226;27.858;2023-02-28T12:24:24;49726.84;;;7.48;100.00
6034;BME280;3045;43.226;27.858;2023-02-28T12:26:58;48440.44;;;7.53;100.00
6034;BME280;3045;43.226;27.858;2023-02-28T12:29:29;48135.13;;;7.74;100.00
6034;BME280;3045;43.226;27.858;2023-02-28T12:31:59;54582.94;;;7.61;100.00
6034;BME280;3045;43.226;27.858;2023-02-28T12:34:31;57152.03;;;7.43;100.00
6034;BME280;3045;43.226;27.858;2023-02-28T12:37:04;58447.41;;;7.44;100.00
6034;BME280;3045;43.226;27.858;2023-02-28T12:39:36;59408.84;;;7.35;100.00
6034;BME280;3045;43.226;27.858;2023-02-28T12:42:10;59416.06;;;7.42;100.00
6034;BME280;3045;43.226;27.858;2023-02-28T12:44:44;53558.69;;;7.02;100.00
6034;BME280;3045;43.226;27.858;2023-02-28T12:47:14;46493.03;;;7.38;100.00
6034;BME280;3045;43.226;27.858;2023-02-28T12:49:49;45833.06;;;7.19;100.00
6034;BME280;3045;43.226;27.858;2023-02-28T12:52:22;45191.94;;;7.23;100.00
6034;BME280;3045;43.226;27.858;2023-02-28T12:54:54;42628.47;;;7.40;100.00
6034;BME280;3045;43.226;27.858;2023-02-28T12:57:33;43581.53;;;7.23;100.00
6034;BME280;3045;43.226;27.858;2023-02-28T13:00:08;42621.31;;;7.30;100.00
6034;BME280;3045;43.226;27.858;2023-02-28T13:02:55;43585.00;;;7.27;100.00
6034;BME280;3045;43.226;27.858;2023-02-28T13:05:46;44872.53;;;7.26;100.00
6034;BME280;3045;43.226;27.858;2023-02-28T13:11:32;37793.59;;;7.27;100.00
6034;BME280;3045;43.226;27.858;2023-02-28T13:14:03;41337.44;;;7.35;100.00
6034;BME280;3045;43.226;27.858;2023-02-28T13:16:53;44544.16;;;7.18;100.00
6034;BME280;3045;43.226;27.858;2023-02-28T13:19:22;38102.53;;;7.09;100.00
6034;BME280;3045;43.226;27.858;2023-02-28T13:21:50;36493.31;;;7.05;100.00
6034;BME280;3045;43.226;27.858;2023-02-28T13:24:43;34563.41;;;7.00;100.00
6034;BME280;3045;43.226;27.858;2023-02-28T13:30:01;39061.66;;;7.01;100.00
6034;BME280;3045;43.226;27.858;2023-02-28T13:32:34;39385.56;;;7.05;100.00
6034;BME280;3045;43.226;27.858;2023-02-28T13:35:38;41965.63;;;7.14;100.00
6034;BME280;3045;43.226;27.858;2023-02-28T13:38:16;42288.19;;;7.15;100.00
6034;BME280;3045;43.226;27.858;2023-02-28T13:40:44;38088.97;;;6.88;100.00
6034;BME280;3045;43.226;27.858;2023-02-28T13:43:11;35198.88;;;6.89;100.00
6034;BME280;3045;43.226;27.858;2023-02-28T13:46:06;34243.03;;;7.01;100.00
6034;BME280;3045;43.226;27.858;2023-02-28T13:48:34;38099.16;;;7.04;100.00
6034;BME280;3045;43.226;27.858;2023-02-28T13:51:35;38421.22;;;7.05;100.00
6034;BME280;3045;43.226;27.858;2023-02-28T13:54:16;33911.09;;;6.82;100.00